sensor_id;sensor_type;location;lat;lon;timestamp;pressure;altitude;pressure_sealevel;temperature;humidity
29935;BME280;19905;53.370;-6.314;2022-08-01T00:00:35;101509.78;;;15.08;100.00
29935;BME280;19905;53.370;-6.314;2022-08-01T00:03:10;101510.56;;;14.99;100.00
29935;BME280;19905;53.370;-6.314;2022-08-01T00:05:39;101515.13;;;14.97;100.00
29935;BME280;19905;53.370;-6.314;2022-08-01T00:08:12;101513.31;;;14.97;100.00
29935;BME280;19905;53.370;-6.314;2022-08-01T00:10:42;101513.22;;;14.99;100.00
29935;BME280;19905;53.370;-6.314;2022-08-01T00:13:12;101521.28;;;14.97;100.00
29935;BME280;19905;53.370;-6.314;2022-08-01T00:15:43;101516.19;;;15.06;100.00
29935;BME280;19905;53.370;-6.314;2022-08-01T00:18:20;101514.38;;;15.06;100.00
29935;BME280;19905;53.370;-6.314;2022-08-01T00:20:55;101506.66;;;15.03;100.00
29935;BME280;19905;53.370;-6.314;2022-08-01T00:23:24;101506.31;;;14.96;100.00
29935;BME280;19905;53.370;-6.314;2022-08-01T00:25:52;101509.72;;;14.98;100.00
29935;BME280;19905;53.370;-6.314;2022-08-01T00:28:21;101505.09;;;15.00;100.00
29935;BME280;19905;53.370;-6.314;2022-08-01T00:30:56;101506.06;;;14.99;100.00
29935;BME280;19905;53.370;-6.314;2022-08-01T00:33:25;101504.38;;;14.98;100.00
29935;BME280;19905;53.370;-6.314;2022-08-01T00:36:02;101499.31;;;14.95;100.00
29935;BME280;19905;53.370;-6.314;2022-08-01T00:38:33;101493.25;;;14.93;100.00
29935;BME280;19905;53.370;-6.314;2022-08-01T00:41:11;101494.50;;;14.89;100.00
29935;BME280;19905;53.370;-6.314;2022-08-01T00:43:40;101494.38;;;14.91;100.00
29935;BME280;19905;53.370;-6.314;2022-08-01T00:46:15;101494.53;;;14.78;100.00
29935;BME280;19905;53.370;-6.314;2022-08-01T00:48:44;101487.16;;;14.70;100.00
29935;BME280;19905;53.370;-6.314;2022-08-01T00:51:13;101480.28;;;14.68;100.00
29935;BME280;19905;53.370;-6.314;2022-08-01T00:53:50;101494.28;;;14.70;100.00
29935;BME280;19905;53.370;-6.314;2022-08-01T00:56:24;101484.78;;;14.67;100.00
29935;BME280;19905;53.370;-6.314;2022-08-01T00:59:03;101485.97;;;14.63;100.00
29935;BME280;19905;53.370;-6.314;2022-08-01T01:01:37;101491.44;;;14.62;100.00
29935;BME280;19905;53.370;-6.314;2022-08-01T01:04:13;101494.56;;;14.56;100.00
29935;BME280;19905;53.370;-6.314;2022-08-01T01:06:48;101497.22;;;14.56;100.00
29935;BME280;19905;53.370;-6.314;2022-08-01T01:09:35;101494.69;;;14.54;100.00
29935;BME280;19905;53.370;-6.314;2022-08-01T01:12:19;101496.63;;;14.52;100.00
29935;BME280;19905;53.370;-6.314;2022-08-01T01:14:56;101498.56;;;14.50;100.00
29935;BME280;19905;53.370;-6.314;2022-08-01T01:17:35;101492.88;;;14.43;100.00
29935;BME280;19905;53.370;-6.314;2022-08-01T01:20:21;101492.00;;;14.43;100.00
29935;BME280;19905;53.370;-6.314;2022-08-01T01:23:10;101487.81;;;14.40;100.00
29935;BME280;19905;53.370;-6.314;2022-08-01T01:26:11;101482.03;;;14.35;100.00
29935;BME280;19905;53.370;-6.314;2022-08-01T01:29:04;101485.50;;;14.36;100.00
29935;BME280;19905;53.370;-6.314;2022-08-01T01:31:40;101474.75;;;14.37;100.00
29935;BME280;19905;53.370;-6.314;2022-08-01T01:34:15;101475.59;;;14.38;100.00
29935;BME280;19905;53.370;-6.314;2022-08-01T01:36:48;101474.78;;;14.48;100.00
29935;BME280;19905;53.370;-6.314;2022-08-01T01:39:18;101472.00;;;14.50;100.00
29935;BME280;19905;53.370;-6.314;2022-08-01T01:41:49;101467.72;;;14.47;100.00
29935;BME280;19905;53.370;-6.314;2022-08-01T01:44:28;101471.25;;;14.37;100.00
29935;BME280;19905;53.370;-6.314;2022-08-01T01:47:09;101469.06;;;14.42;100.00
29935;BME280;19905;53.370;-6.314;2022-08-01T01:49:40;101461.22;;;14.40;100.00
29935;BME280;19905;53.370;-6.314;2022-08-01T01:52:12;101462.56;;;14.35;100.00
29935;BME280;19905;53.370;-6.314;2022-08-01T01:54:51;101471.25;;;14.37;100.00
29935;BME280;19905;53.370;-6.314;2022-08-01T01:57:23;101469.56;;;14.36;100.00
29935;BME280;19905;53.370;-6.314;2022-08-01T02:00:01;101465.13;;;14.25;100.00
29935;BME280;19905;53.370;-6.314;2022-08-01T02:02:37;101467.41;;;14.18;100.00
29935;BME280;19905;53.370;-6.314;2022-08-01T02:05:07;101469.47;;;14.26;100.00
29935;BME280;19905;53.370;-6.314;2022-08-01T02:07:56;101468.84;;;14.22;100.00
29935;BME280;19905;53.370;-6.314;2022-08-01T02:10:35;101476.59;;;14.14;100.00
29935;BME280;19905;53.370;-6.314;2022-08-01T02:13:09;101471.16;;;14.05;100.00
29935;BME280;19905;53.370;-6.314;2022-08-01T02:16:03;101471.63;;;14.10;100.00
29935;BME280;19905;53.370;-6.314;2022-08-01T02:18:47;101473.81;;;14.16;100.00
29935;BME280;19905;53.370;-6.314;2022-08-01T02:21:23;101466.81;;;14.15;100.00
29935;BME280;19905;53.370;-6.314;2022-08-01T02:23:55;101461.13;;;14.19;100.00
29935;BME280;19905;53.370;-6.314;2022-08-01T02:26:44;101456.78;;;14.18;100.00
29935;BME280;19905;53.370;-6.314;2022-08-01T02:29:19;101457.97;;;14.14;100.00
29935;BME280;19905;53.370;-6.314;2022-08-01T02:32:01;101456.78;;;14.18;100.00
29935;BME280;19905;53.370;-6.314;2022-08-01T02:34:32;101446.28;;;14.17;100.00
29935;BME280;19905;53.370;-6.314;2022-08-01T02:37:10;101448.09;;;14.16;100.00
29935;BME280;19905;53.370;-6.314;2022-08-01T02:39:51;101444.00;;;14.12;100.00
29935;BME280;19905;53.370;-6.314;2022-08-01T02:42:38;101446.50;;;14.14;100.00
29935;BME280;19905;53.370;-6.314;2022-08-01T02:45:12;101446.88;;;14.09;100.00
29935;BME280;19905;53.370;-6.314;2022-08-01T02:47:45;101441.22;;;14.03;100.00
29935;BME280;19905;53.370;-6.314;2022-08-01T02:50:17;101455.22;;;13.93;100.00
29935;BME280;19905;53.370;-6.314;2022-08-01T02:52:50;101451.97;;;13.90;100.00
29935;BME280;19905;53.370;-6.314;2022-08-01T02:55:19;101455.22;;;13.82;100.00
29935;BME280;19905;53.370;-6.314;2022-08-01T02:57:53;101452.31;;;13.85;100.00
29935;BME280;19905;53.370;-6.314;2022-08-01T03:00:30;101453.78;;;13.89;100.00
29935;BME280;19905;53.370;-6.314;2022-08-01T03:03:11;101452.69;;;13.92;100.00
29935;BME280;19905;53.370;-6.314;2022-08-01T03:05:47;101443.63;;;13.94;100.00
29935;BME280;19905;53.370;-6.314;2022-08-01T03:08:21;101440.97;;;13.94;100.00
29935;BME280;19905;53.370;-6.314;2022-08-01T03:10:53;101446.53;;;13.91;100.00
29935;BME280;19905;53.370;-6.314;2022-08-01T03:13:29;101443.25;;;13.88;100.00
29935;BME280;19905;53.370;-6.314;2022-08-01T03:16:07;101451.72;;;13.82;100.00
29935;BME280;19905;53.370;-6.314;2022-08-01T03:18:41;101456.31;;;13.80;100.00
29935;BME280;19905;53.370;-6.314;2022-08-01T03:21:20;101451.84;;;13.80;100.00
29935;BME280;19905;53.370;-6.314;2022-08-01T03:23:53;101440.38;;;13.80;100.00
29935;BME280;19905;53.370;-6.314;2022-08-01T03:26:33;101441.59;;;13.76;100.00
29935;BME280;19905;53.370;-6.314;2022-08-01T03:29:12;101436.84;;;13.68;100.00
29935;BME280;19905;53.370;-6.314;2022-08-01T03:31:44;101445.78;;;13.67;100.00
29935;BME280;19905;53.370;-6.314;2022-08-01T03:34:16;101447.97;;;13.62;100.00
29935;BME280;19905;53.370;-6.314;2022-08-01T03:36:56;101437.22;;;13.52;100.00
29935;BME280;19905;53.370;-6.314;2022-08-01T03:39:30;101431.88;;;13.41;100.00
29935;BME280;19905;53.370;-6.314;2022-08-01T03:42:11;101447.09;;;13.39;100.00
29935;BME280;19905;53.370;-6.314;2022-08-01T03:44:48;101453.72;;;13.44;100.00
29935;BME280;19905;53.370;-6.314;2022-08-01T03:47:24;101448.63;;;13.41;100.00
29935;BME280;19905;53.370;-6.314;2022-08-01T03:49:58;101453.44;;;13.36;100.00
29935;BME280;19905;53.370;-6.314;2022-08-01T03:52:30;101451.06;;;13.33;100.00
29935;BME280;19905;53.370;-6.314;2022-08-01T03:55:04;101446.94;;;13.29;100.00
29935;BME280;19905;53.370;-6.314;2022-08-01T03:57:35;101451.16;;;13.32;100.00
29935;BME280;19905;53.370;-6.314;2022-08-01T04:00:08;101448.75;;;13.29;100.00
29935;BME280;19905;53.370;-6.314;2022-08-01T04:02:38;101443.78;;;13.24;100.00
29935;BME280;19905;53.370;-6.314;2022-08-01T04:05:11;101447.59;;;13.20;100.00
29935;BME280;19905;53.370;-6.314;2022-08-01T04:07:50;101443.13;;;13.20;100.00
29935;BME280;19905;53.370;-6.314;2022-08-01T04:10:25;101440.34;;;13.11;100.00
29935;BME280;19905;53.370;-6.314;2022-08-01T04:12:56;101437.50;;;13.01;100.00
29935;BME280;19905;53.370;-6.314;2022-08-01T04:15:25;101441.38;;;12.97;100.00
29935;BME280;19905;53.370;-6.314;2022-08-01T04:18:00;101437.00;;;12.96;100.00
29935;BME280;19905;53.370;-6.314;2022-08-01T04:20:30;101442.81;;;13.01;100.00
29935;BME280;19905;53.370;-6.314;2022-08-01T04:23:03;101447.13;;;12.91;100.00
29935;BME280;19905;53.370;-6.314;2022-08-01T04:25:33;101449.69;;;12.92;100.00
29935;BME280;19905;53.370;-6.314;2022-08-01T04:28:04;101452.53;;;12.89;100.00
29935;BME280;19905;53.370;-6.314;2022-08-01T04:30:36;101454.56;;;12.86;100.00
29935;BME280;19905;53.370;-6.314;2022-08-01T04:33:15;101453.34;;;12.79;100.00
29935;BME280;19905;53.370;-6.314;2022-08-01T04:35:47;101453.94;;;12.82;100.00
29935;BME280;19905;53.370;-6.314;2022-08-01T04:38:36;101450.38;;;12.83;100.00
29935;BME280;19905;53.370;-6.314;2022-08-01T04:41:07;101425.41;;;12.86;100.00
29935;BME280;19905;53.370;-6.314;2022-08-01T04:43:44;101419.53;;;12.93;100.00
29935;BME280;19905;53.370;-6.314;2022-08-01T04:46:22;101415.78;;;12.96;100.00
29935;BME280;19905;53.370;-6.314;2022-08-01T04:48:54;101412.94;;;12.99;100.00
29935;BME280;19905;53.370;-6.314;2022-08-01T04:51:30;101413.41;;;13.04;100.00
29935;BME280;19905;53.370;-6.314;2022-08-01T04:54:01;101411.59;;;13.05;100.00
29935;BME280;19905;53.370;-6.314;2022-08-01T04:56:30;101410.06;;;13.02;100.00
29935;BME280;19905;53.370;-6.314;2022-08-01T04:59:01;101411.34;;;12.96;100.00
29935;BME280;19905;53.370;-6.314;2022-08-01T05:01:49;101417.59;;;12.95;100.00
29935;BME280;19905;53.370;-6.314;2022-08-01T05:04:18;101420.59;;;12.91;100.00
29935;BME280;19905;53.370;-6.314;2022-08-01T05:06:49;101419.75;;;12.90;100.00
29935;BME280;19905;53.370;-6.314;2022-08-01T05:09:18;101419.53;;;12.93;100.00
29935;BME280;19905;53.370;-6.314;2022-08-01T05:11:54;101426.53;;;12.94;100.00
29935;BME280;19905;53.370;-6.314;2022-08-01T05:14:26;101415.69;;;12.97;100.00
29935;BME280;19905;53.370;-6.314;2022-08-01T05:16:56;101422.69;;;12.98;100.00
29935;BME280;19905;53.370;-6.314;2022-08-01T05:19:33;101433.53;;;12.95;100.00
29935;BME280;19905;53.370;-6.314;2022-08-01T05:22:21;101436.16;;;12.95;100.00
29935;BME280;19905;53.370;-6.314;2022-08-01T05:24:53;101434.84;;;13.01;100.00
29935;BME280;19905;53.370;-6.314;2022-08-01T05:27:22;101435.47;;;13.05;100.00
29935;BME280;19905;53.370;-6.314;2022-08-01T05:30:01;101430.53;;;13.00;100.00
29935;BME280;19905;53.370;-6.314;2022-08-01T05:32:30;101437.50;;;13.01;100.00
29935;BME280;19905;53.370;-6.314;2022-08-01T05:35:01;101434.25;;;12.97;100.00
29935;BME280;19905;53.370;-6.314;2022-08-01T05:37:38;101442.16;;;12.86;100.00
29935;BME280;19905;53.370;-6.314;2022-08-01T05:40:08;101444.31;;;12.81;100.00
29935;BME280;19905;53.370;-6.314;2022-08-01T05:42:36;101434.16;;;12.75;100.00
29935;BME280;19905;53.370;-6.314;2022-08-01T05:45:08;101432.75;;;12.82;100.00
29935;BME280;19905;53.370;-6.314;2022-08-01T05:47:37;101430.50;;;12.89;100.00
29935;BME280;19905;53.370;-6.314;2022-08-01T05:50:11;101430.16;;;12.93;100.00
29935;BME280;19905;53.370;-6.314;2022-08-01T05:52:43;101427.88;;;13.00;100.00
29935;BME280;19905;53.370;-6.314;2022-08-01T05:55:12;101426.69;;;13.04;100.00
29935;BME280;19905;53.370;-6.314;2022-08-01T05:57:52;101429.25;;;13.06;100.00
29935;BME280;19905;53.370;-6.314;2022-08-01T06:00:23;101423.19;;;13.04;100.00
29935;BME280;19905;53.370;-6.314;2022-08-01T06:02:53;101414.88;;;13.08;100.00
29935;BME280;19905;53.370;-6.314;2022-08-01T06:05:25;101416.22;;;13.14;100.00
29935;BME280;19905;53.370;-6.314;2022-08-01T06:07:55;101423.09;;;13.16;100.00
29935;BME280;19905;53.370;-6.314;2022-08-01T06:10:25;101419.91;;;13.24;100.00
29935;BME280;19905;53.370;-6.314;2022-08-01T06:12:54;101421.34;;;13.28;100.00
29935;BME280;19905;53.370;-6.314;2022-08-01T06:15:25;101405.19;;;13.31;100.00
29935;BME280;19905;53.370;-6.314;2022-08-01T06:17:55;101404.84;;;13.36;100.00
29935;BME280;19905;53.370;-6.314;2022-08-01T06:20:31;101408.34;;;13.36;100.00
29935;BME280;19905;53.370;-6.314;2022-08-01T06:23:03;101411.84;;;13.37;100.00
29935;BME280;19905;53.370;-6.314;2022-08-01T06:26:00;101412.22;;;13.43;100.00
29935;BME280;19905;53.370;-6.314;2022-08-01T06:28:35;101403.44;;;13.43;100.00
29935;BME280;19905;53.370;-6.314;2022-08-01T06:31:11;101407.63;;;13.45;100.00
29935;BME280;19905;53.370;-6.314;2022-08-01T06:33:40;101404.97;;;13.45;100.00
29935;BME280;19905;53.370;-6.314;2022-08-01T06:36:11;101406.44;;;13.50;100.00
29935;BME280;19905;53.370;-6.314;2022-08-01T06:38:41;101403.66;;;13.51;100.00
29935;BME280;19905;53.370;-6.314;2022-08-01T06:41:10;101396.78;;;13.48;100.00
29935;BME280;19905;53.370;-6.314;2022-08-01T06:43:40;101394.84;;;13.51;100.00
29935;BME280;19905;53.370;-6.314;2022-08-01T06:46:10;101396.06;;;13.58;100.00
29935;BME280;19905;53.370;-6.314;2022-08-01T06:48:39;101391.59;;;13.58;100.00
29935;BME280;19905;53.370;-6.314;2022-08-01T06:51:11;101395.59;;;13.64;100.00
29935;BME280;19905;53.370;-6.314;2022-08-01T06:53:43;101388.72;;;13.61;100.00
29935;BME280;19905;53.370;-6.314;2022-08-01T06:56:13;101392.69;;;13.67;100.00
29935;BME280;19905;53.370;-6.314;2022-08-01T06:58:41;101395.84;;;13.72;100.00
29935;BME280;19905;53.370;-6.314;2022-08-01T07:01:10;101391.22;;;13.74;100.00
29935;BME280;19905;53.370;-6.314;2022-08-01T07:03:40;101394.28;;;13.81;100.00
29935;BME280;19905;53.370;-6.314;2022-08-01T07:06:21;101396.09;;;13.80;100.00
29935;BME280;19905;53.370;-6.314;2022-08-01T07:08:58;101402.38;;;13.79;100.00
29935;BME280;19905;53.370;-6.314;2022-08-01T07:11:37;101404.75;;;13.82;100.00
29935;BME280;19905;53.370;-6.314;2022-08-01T07:14:10;101408.25;;;13.83;100.00
29935;BME280;19905;53.370;-6.314;2022-08-01T07:16:45;101413.19;;;13.87;100.00
29935;BME280;19905;53.370;-6.314;2022-08-01T07:19:14;101406.31;;;13.96;100.00
29935;BME280;19905;53.370;-6.314;2022-08-01T07:21:59;101408.72;;;14.10;100.00
29935;BME280;19905;53.370;-6.314;2022-08-01T07:24:34;101406.16;;;14.20;100.00
29935;BME280;19905;53.370;-6.314;2022-08-01T07:27:02;101409.31;;;14.25;100.00
29935;BME280;19905;53.370;-6.314;2022-08-01T07:29:51;101399.03;;;14.32;100.00
29935;BME280;19905;53.370;-6.314;2022-08-01T07:32:20;101394.03;;;14.38;100.00
29935;BME280;19905;53.370;-6.314;2022-08-01T07:34:50;101403.09;;;14.47;100.00
29935;BME280;19905;53.370;-6.314;2022-08-01T07:37:20;101405.00;;;14.56;100.00
29935;BME280;19905;53.370;-6.314;2022-08-01T07:40:10;101398.00;;;14.66;100.00
29935;BME280;19905;53.370;-6.314;2022-08-01T07:42:40;101396.19;;;14.67;100.00
29935;BME280;19905;53.370;-6.314;2022-08-01T07:45:14;101393.63;;;14.65;100.00
29935;BME280;19905;53.370;-6.314;2022-08-01T07:47:43;101389.16;;;14.66;100.00
29935;BME280;19905;53.370;-6.314;2022-08-01T07:50:20;101394.19;;;14.80;100.00
29935;BME280;19905;53.370;-6.314;2022-08-01T07:52:49;101388.81;;;14.91;100.00
29935;BME280;19905;53.370;-6.314;2022-08-01T07:55:19;101384.38;;;15.02;100.00
29935;BME280;19905;53.370;-6.314;2022-08-01T07:57:50;101369.22;;;15.13;100.00
29935;BME280;19905;53.370;-6.314;2022-08-01T08:00:18;101360.25;;;15.14;100.00
29935;BME280;19905;53.370;-6.314;2022-08-01T08:02:47;101356.94;;;15.22;100.00
29935;BME280;19905;53.370;-6.314;2022-08-01T08:05:16;101357.09;;;15.30;100.00
29935;BME280;19905;53.370;-6.314;2022-08-01T08:08:06;101351.00;;;15.39;100.00
29935;BME280;19905;53.370;-6.314;2022-08-01T08:10:36;101347.50;;;15.39;100.00
29935;BME280;19905;53.370;-6.314;2022-08-01T08:13:15;101346.44;;;15.51;100.00
29935;BME280;19905;53.370;-6.314;2022-08-01T08:15:49;101343.81;;;15.61;100.00
29935;BME280;19905;53.370;-6.314;2022-08-01T08:18:18;101336.63;;;15.82;100.00
29935;BME280;19905;53.370;-6.314;2022-08-01T08:20:47;101334.00;;;16.01;100.00
29935;BME280;19905;53.370;-6.314;2022-08-01T08:23:22;101332.59;;;16.07;100.00
29935;BME280;19905;53.370;-6.314;2022-08-01T08:26:11;101325.88;;;16.03;100.00
29935;BME280;19905;53.370;-6.314;2022-08-01T08:28:41;101320.16;;;16.17;100.00
29935;BME280;19905;53.370;-6.314;2022-08-01T08:31:09;101305.59;;;16.31;100.00
29935;BME280;19905;53.370;-6.314;2022-08-01T08:33:58;101310.91;;;16.31;100.00
29935;BME280;19905;53.370;-6.314;2022-08-01T08:36:26;101298.13;;;16.44;100.00
29935;BME280;19905;53.370;-6.314;2022-08-01T08:38:59;101290.56;;;16.59;100.00
29935;BME280;19905;53.370;-6.314;2022-08-01T08:41:31;101289.31;;;16.73;100.00
29935;BME280;19905;53.370;-6.314;2022-08-01T08:44:05;101281.25;;;16.92;100.00
29935;BME280;19905;53.370;-6.314;2022-08-01T08:46:41;101279.50;;;17.11;100.00
29935;BME280;19905;53.370;-6.314;2022-08-01T08:49:14;101284.88;;;17.38;100.00
29935;BME280;19905;53.370;-6.314;2022-08-01T08:51:47;101276.16;;;17.64;100.00
29935;BME280;19905;53.370;-6.314;2022-08-01T08:54:27;101268.84;;;17.66;100.00
29935;BME280;19905;53.370;-6.314;2022-08-01T08:57:00;101267.25;;;17.55;100.00
29935;BME280;19905;53.370;-6.314;2022-08-01T08:59:29;101253.38;;;17.69;100.00
29935;BME280;19905;53.370;-6.314;2022-08-01T09:01:58;101256.50;;;17.92;100.00
29935;BME280;19905;53.370;-6.314;2022-08-01T09:04:26;101254.97;;;18.08;100.00
29935;BME280;19905;53.370;-6.314;2022-08-01T09:06:55;101252.97;;;18.27;100.00
29935;BME280;19905;53.370;-6.314;2022-08-01T09:09:23;101253.03;;;18.36;100.00
29935;BME280;19905;53.370;-6.314;2022-08-01T09:11:54;101249.13;;;18.48;100.00
29935;BME280;19905;53.370;-6.314;2022-08-01T09:14:26;101237.19;;;18.60;100.00
29935;BME280;19905;53.370;-6.314;2022-08-01T09:17:01;101248.25;;;18.91;100.00
29935;BME280;19905;53.370;-6.314;2022-08-01T09:19:37;101236.13;;;19.05;100.00
29935;BME280;19905;53.370;-6.314;2022-08-01T09:22:09;101234.56;;;18.94;100.00
29935;BME280;19905;53.370;-6.314;2022-08-01T09:24:39;101227.13;;;19.06;100.00
29935;BME280;19905;53.370;-6.314;2022-08-01T09:27:20;101233.19;;;19.16;100.00
29935;BME280;19905;53.370;-6.314;2022-08-01T09:29:53;101232.84;;;19.19;100.00
29935;BME280;19905;53.370;-6.314;2022-08-01T09:32:28;101219.34;;;19.37;100.00
29935;BME280;19905;53.370;-6.314;2022-08-01T09:35:23;101219.94;;;19.57;100.00
29935;BME280;19905;53.370;-6.314;2022-08-01T09:38:15;101202.06;;;19.74;100.00
29935;BME280;19905;53.370;-6.314;2022-08-01T09:40:51;101192.03;;;19.68;100.00
29935;BME280;19905;53.370;-6.314;2022-08-01T09:43:21;101197.22;;;19.61;100.00
29935;BME280;19905;53.370;-6.314;2022-08-01T09:45:52;101192.31;;;19.57;100.00
29935;BME280;19905;53.370;-6.314;2022-08-01T09:48:21;101179.13;;;19.88;100.00
29935;BME280;19905;53.370;-6.314;2022-08-01T09:50:57;101174.59;;;20.37;100.00
29935;BME280;19905;53.370;-6.314;2022-08-01T09:53:40;101174.06;;;20.66;100.00
29935;BME280;19905;53.370;-6.314;2022-08-01T09:56:20;101171.13;;;21.00;100.00
29935;BME280;19905;53.370;-6.314;2022-08-01T09:58:50;101162.22;;;21.00;100.00
29935;BME280;19905;53.370;-6.314;2022-08-01T10:01:28;101161.41;;;20.91;100.00
29935;BME280;19905;53.370;-6.314;2022-08-01T10:04:08;101158.34;;;21.02;100.00
29935;BME280;19905;53.370;-6.314;2022-08-01T10:06:39;101157.25;;;21.20;100.00
29935;BME280;19905;53.370;-6.314;2022-08-01T10:09:10;101162.34;;;21.06;100.00
29935;BME280;19905;53.370;-6.314;2022-08-01T10:11:41;101154.56;;;21.20;100.00
29935;BME280;19905;53.370;-6.314;2022-08-01T10:14:11;101160.94;;;21.27;100.00
29935;BME280;19905;53.370;-6.314;2022-08-01T10:16:46;101160.53;;;21.38;100.00
29935;BME280;19905;53.370;-6.314;2022-08-01T10:19:22;101148.56;;;21.49;100.00
29935;BME280;19905;53.370;-6.314;2022-08-01T10:21:56;101140.91;;;21.29;100.00
29935;BME280;19905;53.370;-6.314;2022-08-01T10:24:29;101139.91;;;21.30;100.00
29935;BME280;19905;53.370;-6.314;2022-08-01T10:27:02;101144.91;;;21.42;100.00
29935;BME280;19905;53.370;-6.314;2022-08-01T10:29:41;101139.00;;;21.46;100.00
29935;BME280;19905;53.370;-6.314;2022-08-01T10:32:32;101124.53;;;21.47;100.00
29935;BME280;19905;53.370;-6.314;2022-08-01T10:35:04;101127.19;;;21.78;100.00
29935;BME280;19905;53.370;-6.314;2022-08-01T10:37:41;101116.13;;;21.73;100.00
29935;BME280;19905;53.370;-6.314;2022-08-01T10:40:19;101112.97;;;21.47;100.00
29935;BME280;19905;53.370;-6.314;2022-08-01T10:42:58;101117.19;;;21.41;100.00
29935;BME280;19905;53.370;-6.314;2022-08-01T10:45:27;101126.88;;;21.50;100.00
29935;BME280;19905;53.370;-6.314;2022-08-01T10:48:04;101110.94;;;21.49;100.00
29935;BME280;19905;53.370;-6.314;2022-08-01T10:50:40;101112.38;;;21.60;100.00
29935;BME280;19905;53.370;-6.314;2022-08-01T10:53:16;101113.06;;;21.30;100.00
29935;BME280;19905;53.370;-6.314;2022-08-01T10:55:59;101103.28;;;21.29;100.00
29935;BME280;19905;53.370;-6.314;2022-08-01T10:58:36;101102.16;;;21.24;100.00
29935;BME280;19905;53.370;-6.314;2022-08-01T11:01:20;101092.09;;;21.26;100.00
29935;BME280;19905;53.370;-6.314;2022-08-01T11:04:05;101097.59;;;21.33;100.00
29935;BME280;19905;53.370;-6.314;2022-08-01T11:07:01;101095.41;;;21.28;100.00
29935;BME280;19905;53.370;-6.314;2022-08-01T11:09:42;101088.53;;;21.25;100.00
29935;BME280;19905;53.370;-6.314;2022-08-01T11:12:18;101088.81;;;21.39;100.00
29935;BME280;19905;53.370;-6.314;2022-08-01T11:15:19;101072.25;;;21.35;100.00
29935;BME280;19905;53.370;-6.314;2022-08-01T11:18:03;101076.75;;;21.35;100.00
29935;BME280;19905;53.370;-6.314;2022-08-01T11:20:35;101074.25;;;21.33;100.00
29935;BME280;19905;53.370;-6.314;2022-08-01T11:23:18;101071.03;;;21.29;100.00
29935;BME280;19905;53.370;-6.314;2022-08-01T11:26:09;101068.81;;;21.10;100.00
29935;BME280;19905;53.370;-6.314;2022-08-01T11:28:41;101069.16;;;21.07;100.00
29935;BME280;19905;53.370;-6.314;2022-08-01T11:31:32;101060.66;;;21.03;100.00
29935;BME280;19905;53.370;-6.314;2022-08-01T11:34:04;101060.19;;;20.92;100.00
29935;BME280;19905;53.370;-6.314;2022-08-01T11:36:35;101072.00;;;20.83;100.00
29935;BME280;19905;53.370;-6.314;2022-08-01T11:39:24;101059.75;;;20.80;100.00
29935;BME280;19905;53.370;-6.314;2022-08-01T11:41:52;101065.38;;;20.93;100.00
29935;BME280;19905;53.370;-6.314;2022-08-01T11:44:48;101064.88;;;20.67;100.00
29935;BME280;19905;53.370;-6.314;2022-08-01T11:47:43;101060.97;;;20.69;100.00
29935;BME280;19905;53.370;-6.314;2022-08-01T11:50:31;101061.81;;;20.70;100.00
29935;BME280;19905;53.370;-6.314;2022-08-01T11:53:03;101054.22;;;20.81;100.00
29935;BME280;19905;53.370;-6.314;2022-08-01T11:55:33;101053.09;;;20.76;100.00
29935;BME280;19905;53.370;-6.314;2022-08-01T11:58:05;101051.00;;;20.86;100.00
29935;BME280;19905;53.370;-6.314;2022-08-01T12:00:54;101063.94;;;20.83;100.00
29935;BME280;19905;53.370;-6.314;2022-08-01T12:03:25;101063.56;;;20.46;100.00
29935;BME280;19905;53.370;-6.314;2022-08-01T12:05:59;101061.22;;;20.51;100.00
29935;BME280;19905;53.370;-6.314;2022-08-01T12:08:30;101059.88;;;20.47;100.00
29935;BME280;19905;53.370;-6.314;2022-08-01T12:11:04;101054.84;;;20.52;100.00
29935;BME280;19905;53.370;-6.314;2022-08-01T12:13:40;101053.47;;;20.56;100.00
29935;BME280;19905;53.370;-6.314;2022-08-01T12:16:11;101046.53;;;20.70;100.00
29935;BME280;19905;53.370;-6.314;2022-08-01T12:18:42;101035.53;;;20.88;100.00
29935;BME280;19905;53.370;-6.314;2022-08-01T12:21:12;101026.31;;;20.91;100.00
29935;BME280;19905;53.370;-6.314;2022-08-01T12:23:42;101024.47;;;20.91;100.00
29935;BME280;19905;53.370;-6.314;2022-08-01T12:26:11;101015.16;;;21.02;100.00
29935;BME280;19905;53.370;-6.314;2022-08-01T12:28:57;101020.06;;;20.98;100.00
29935;BME280;19905;53.370;-6.314;2022-08-01T12:31:32;101018.78;;;20.86;100.00
29935;BME280;19905;53.370;-6.314;2022-08-01T12:34:24;101005.22;;;20.79;100.00
29935;BME280;19905;53.370;-6.314;2022-08-01T12:36:55;101010.78;;;20.78;100.00
29935;BME280;19905;53.370;-6.314;2022-08-01T12:39:32;101005.09;;;20.73;100.00
29935;BME280;19905;53.370;-6.314;2022-08-01T12:42:08;101009.63;;;20.72;100.00
29935;BME280;19905;53.370;-6.314;2022-08-01T12:44:40;101003.56;;;20.78;100.00
29935;BME280;19905;53.370;-6.314;2022-08-01T12:47:12;101004.00;;;20.90;100.00
29935;BME280;19905;53.370;-6.314;2022-08-01T12:49:42;100993.56;;;20.95;100.00
29935;BME280;19905;53.370;-6.314;2022-08-01T12:52:12;100986.88;;;20.91;100.00
29935;BME280;19905;53.370;-6.314;2022-08-01T12:55:04;100982.69;;;21.12;100.00
29935;BME280;19905;53.370;-6.314;2022-08-01T12:57:38;100978.31;;;21.11;100.00
29935;BME280;19905;53.370;-6.314;2022-08-01T13:00:19;100973.69;;;21.04;100.00
29935;BME280;19905;53.370;-6.314;2022-08-01T13:02:50;100971.53;;;21.23;100.00
29935;BME280;19905;53.370;-6.314;2022-08-01T13:05:19;100969.75;;;21.38;100.00
29935;BME280;19905;53.370;-6.314;2022-08-01T13:07:53;100971.31;;;21.33;100.00
29935;BME280;19905;53.370;-6.314;2022-08-01T13:10:28;100964.09;;;21.25;100.00